Time;durP1;ratioP1;P1;durP2;ratioP2;P2;SDS_P1;SDS_P2;PMS_P1;PMS_P2;Temp;Humidity;BMP_temperature;BMP_pressure;BME280_temperature;BME280_humidity;BME280_pressure;Samples;Min_cycle;Max_cycle;Signal;HPM_P1;HPM_P2
2023/01/07 00:00:00;;;;;;;;;2.00;2.00;;;;;20.29;59.95;101093.65;105474;1298;20212;-65
2023/01/07 00:02:28;;;;;;;;;2.00;2.00;;;;;20.28;59.92;101092.42;105519;1297;20377;-64
2023/01/07 00:04:55;;;;;;;;;2.00;2.00;;;;;20.28;59.92;101093.52;105451;1298;22292;-65
2023/01/07 00:07:23;;;;;;;;;2.00;2.00;;;;;20.29;60.11;101093.41;105483;1289;20362;-65
2023/01/07 00:09:55;;;;;;;;;2.00;2.00;;;;;20.30;59.94;101094.67;105544;1300;23105;-66
2023/01/07 00:12:33;;;;;;;;;2.00;2.00;;;;;20.29;59.99;101095.11;105421;1278;23422;-65
2023/01/07 00:15:00;;;;;;;;;2.00;2.00;;;;;20.28;60.08;101088.98;105465;1291;20044;-66
2023/01/07 00:17:28;;;;;;;;;2.00;1.50;;;;;20.27;60.19;101089.99;105533;1298;24432;-66
2023/01/07 00:19:55;;;;;;;;;2.00;2.00;;;;;20.28;60.01;101095.36;105411;1275;19157;-66
2023/01/07 00:22:22;;;;;;;;;2.00;2.00;;;;;20.27;60.01;101091.43;105542;1284;23318;-65
2023/01/07 00:24:50;;;;;;;;;2.00;2.00;;;;;20.28;59.80;101090.45;105357;1300;19256;-64
2023/01/07 00:27:17;;;;;;;;;;;;;;;20.28;59.99;101097.36;105412;1274;22760;-65
2023/01/07 00:29:44;;;;;;;;;2.00;2.00;;;;;20.29;60.04;101094.91;105589;1288;21579;-66
2023/01/07 00:32:12;;;;;;;;;2.00;2.00;;;;;20.29;59.86;101100.39;105478;1289;19147;-66
2023/01/07 00:34:39;;;;;;;;;2.00;2.00;;;;;20.29;59.98;101106.13;105485;1291;20647;-67
2023/01/07 00:39:48;;;;;;;;;2.00;2.00;;;;;20.29;60.10;101108.02;105377;1289;23560;-65
2023/01/07 00:45:00;;;;;;;;;1.50;1.50;;;;;20.27;60.03;101103.74;105408;1274;20513;-66
2023/01/07 00:47:27;;;;;;;;;2.00;2.00;;;;;20.27;59.94;101107.04;105588;1282;23643;-67
2023/01/07 00:49:55;;;;;;;;;2.00;2.00;;;;;20.28;59.87;101112.06;105507;1279;20755;-66
2023/01/07 00:52:22;;;;;;;;;2.00;2.00;;;;;20.28;59.87;101112.59;105480;1297;20116;-64
2023/01/07 00:54:50;;;;;;;;;2.00;2.00;;;;;20.28;60.03;101115.53;105441;1289;23526;-66
2023/01/07 00:57:17;;;;;;;;;1.00;1.00;;;;;20.26;59.96;101112.58;105453;1306;22911;-66
2023/01/07 00:59:44;;;;;;;;;2.00;2.00;;;;;20.27;60.02;101119.83;105564;1295;20052;-66
2023/01/07 01:02:12;;;;;;;;;2.00;2.00;;;;;20.27;59.82;101117.64;105539;1285;22763;-67
2023/01/07 01:04:39;;;;;;;;;1.00;1.00;;;;;20.26;60.01;101124.05;105538;1291;23681;-65
2023/01/07 01:07:06;;;;;;;;;2.00;2.00;;;;;20.26;59.95;101123.33;105566;1300;19907;-66
2023/01/07 01:09:33;;;;;;;;;1.00;1.00;;;;;20.26;60.09;101120.61;105577;1297;23399;-66
2023/01/07 01:12:01;;;;;;;;;2.00;2.00;;;;;20.25;59.79;101115.23;105478;1300;19233;-66
2023/01/07 01:14:28;;;;;;;;;4.00;2.00;;;;;20.24;59.84;101115.34;105514;1298;20374;-65
2023/01/07 01:16:55;;;;;;;;;3.00;2.00;;;;;20.24;59.88;101108.60;105536;1297;23725;-66
2023/01/07 01:19:23;;;;;;;;;1.00;1.00;;;;;20.25;59.92;101114.39;105496;1292;20780;-66
2023/01/07 01:21:50;;;;;;;;;2.00;2.00;;;;;20.25;59.91;101113.77;105457;1298;20049;-66
2023/01/07 01:24:18;;;;;;;;;1.00;1.00;;;;;20.25;59.76;101107.34;105454;1282;19555;-66
2023/01/07 01:26:45;;;;;;;;;2.00;2.00;;;;;20.24;59.87;101111.59;105514;1297;19538;-67
2023/01/07 01:29:12;;;;;;;;;1.00;1.00;;;;;20.23;59.86;101103.50;105448;1295;22827;-66
2023/01/07 01:31:40;;;;;;;;;1.00;1.00;;;;;20.23;59.88;101108.39;105425;1282;22285;-66
2023/01/07 01:34:07;;;;;;;;;1.00;1.00;;;;;20.25;59.84;101108.52;105447;1275;19140;-65
2023/01/07 01:36:34;;;;;;;;;2.00;2.00;;;;;20.25;59.88;101110.78;105548;1297;21765;-66
2023/01/07 01:39:03;;;;;;;;;2.00;2.00;;;;;20.24;59.72;101101.77;105594;1283;21980;-66
2023/01/07 01:41:31;;;;;;;;;2.00;2.00;;;;;20.25;59.63;101108.02;105424;1282;20805;-65
2023/01/07 01:43:58;;;;;;;;;2.00;2.00;;;;;20.25;59.67;101107.82;105524;1297;20262;-66
2023/01/07 01:46:25;;;;;;;;;1.00;1.00;;;;;20.25;59.70;101103.16;105530;1300;23507;-65
2023/01/07 01:48:53;;;;;;;;;1.00;1.00;;;;;20.24;59.76;101100.30;105474;1275;19237;-66
2023/01/07 01:51:20;;;;;;;;;2.00;2.00;;;;;20.25;59.81;101107.48;105455;1282;22531;-66
2023/01/07 01:53:48;;;;;;;;;2.00;2.00;;;;;20.24;59.87;101115.36;105514;1298;19585;-66
2023/01/07 01:56:15;;;;;;;;;2.00;2.00;;;;;20.24;59.75;101116.80;105484;1282;19246;-66
2023/01/07 01:58:43;;;;;;;;;1.00;1.00;;;;;20.24;59.74;101121.73;105511;1296;22768;-67
2023/01/07 02:01:10;;;;;;;;;2.00;2.00;;;;;20.24;59.75;101125.48;105466;1302;19172;-67
2023/01/07 02:03:37;;;;;;;;;1.00;1.00;;;;;20.25;59.62;101126.33;105562;1297;19238;-66
2023/01/07 02:06:05;;;;;;;;;2.00;2.00;;;;;20.24;59.69;101123.95;105566;1275;21316;-66
2023/01/07 02:08:32;;;;;;;;;;;;;;;20.23;59.66;101122.58;105465;1275;23517;-66
2023/01/07 02:10:59;;;;;;;;;2.00;2.00;;;;;20.24;59.62;101123.77;105528;1301;19016;-66
2023/01/07 02:13:28;;;;;;;;;2.00;2.00;;;;;20.23;59.61;101128.95;105564;1289;23073;-65
2023/01/07 02:15:55;;;;;;;;;2.00;2.00;;;;;20.23;59.63;101127.11;105495;1299;19179;-65
2023/01/07 02:18:22;;;;;;;;;1.50;1.50;;;;;20.22;59.70;101123.58;105457;1300;19236;-65
2023/01/07 02:20:50;;;;;;;;;2.00;2.00;;;;;20.23;59.67;101122.83;105524;1291;23172;-65
2023/01/07 02:23:17;;;;;;;;;2.00;2.00;;;;;20.23;59.75;101122.08;105609;1274;19173;-65
2023/01/07 02:25:44;;;;;;;;;4.00;2.00;;;;;20.23;59.69;101122.55;105530;1300;19319;-65
2023/01/07 02:28:12;;;;;;;;;2.00;2.00;;;;;20.23;59.54;101121.49;105523;1297;20186;-65
2023/01/07 02:30:39;;;;;;;;;1.00;1.00;;;;;20.22;59.47;101112.89;105492;1300;19195;-65
2023/01/07 02:33:06;;;;;;;;;1.00;1.00;;;;;20.21;59.74;101109.38;105473;1300;23134;-65
2023/01/07 02:35:34;;;;;;;;;2.00;2.00;;;;;20.23;59.65;101112.27;105536;1298;20005;-65
2023/01/07 02:38:01;;;;;;;;;2.00;2.00;;;;;20.22;59.75;101110.50;105501;1301;23571;-66
2023/01/07 02:40:29;;;;;;;;;2.00;2.00;;;;;20.22;59.49;101111.95;105513;1294;20639;-66
2023/01/07 02:42:56;;;;;;;;;1.00;1.00;;;;;20.22;59.51;101110.73;105462;1283;22833;-67
2023/01/07 02:45:23;;;;;;;;;2.00;2.00;;;;;20.21;59.51;101112.02;105460;1289;19315;-66
2023/01/07 02:47:51;;;;;;;;;1.00;1.00;;;;;20.22;59.61;101116.92;105467;1298;19545;-66
2023/01/07 02:50:18;;;;;;;;;2.00;2.00;;;;;20.22;59.55;101120.37;105467;1275;20080;-66
2023/01/07 02:52:45;;;;;;;;;1.00;1.00;;;;;20.21;59.75;101119.13;105492;1274;19265;-66
2023/01/07 02:55:13;;;;;;;;;2.00;1.50;;;;;20.21;59.65;101123.17;105474;1300;19387;-66
2023/01/07 02:57:40;;;;;;;;;2.00;2.00;;;;;20.22;59.63;101122.89;105470;1282;20138;-66
2023/01/07 03:00:07;;;;;;;;;2.00;2.00;;;;;20.20;59.56;101124.49;105467;1282;23458;-65
2023/01/07 03:02:35;;;;;;;;;;;;;;;20.20;59.63;101125.42;105483;1282;19699;-66
2023/01/07 03:05:02;;;;;;;;;2.00;2.00;;;;;20.20;59.52;101120.35;105507;1282;21862;-66
2023/01/07 03:07:29;;;;;;;;;2.00;2.00;;;;;20.20;59.57;101126.65;105486;1275;19200;-67
2023/01/07 03:09:57;;;;;;;;;2.00;1.50;;;;;20.20;59.59;101127.22;105478;1282;19254;-65
2023/01/07 03:12:24;;;;;;;;;2.00;2.00;;;;;20.20;59.60;101128.85;105420;1281;21470;-65
2023/01/07 03:14:51;;;;;;;;;2.00;2.00;;;;;20.20;59.72;101129.40;105498;1298;19131;-66
2023/01/07 03:17:19;;;;;;;;;2.00;2.00;;;;;20.20;59.60;101129.09;105433;1275;20807;-66
2023/01/07 03:19:46;;;;;;;;;2.00;2.00;;;;;20.20;59.52;101128.48;105510;1297;21613;-66
2023/01/07 03:22:13;;;;;;;;;2.00;2.00;;;;;20.20;59.58;101129.27;105457;1297;23462;-66
2023/01/07 03:24:41;;;;;;;;;1.00;1.00;;;;;20.21;59.58;101130.05;105470;1298;19263;-66
2023/01/07 03:27:08;;;;;;;;;1.00;1.00;;;;;20.20;59.64;101136.10;105452;1291;25033;-66
2023/01/07 03:29:35;;;;;;;;;2.00;2.00;;;;;20.19;59.44;101134.23;105502;1305;19181;-66
2023/01/07 03:32:03;;;;;;;;;2.00;1.50;;;;;20.20;59.56;101141.58;105512;1290;20738;-66
2023/01/07 03:34:30;;;;;;;;;2.00;2.00;;;;;20.20;59.47;101143.42;105549;1297;21616;-66
2023/01/07 03:36:58;;;;;;;;;2.00;2.00;;;;;20.18;59.64;101144.30;105458;1297;23610;-66
2023/01/07 03:39:25;;;;;;;;;2.00;2.00;;;;;20.20;59.53;101151.55;105426;1299;19254;-66
2023/01/07 03:44:37;;;;;;;;;2.00;2.00;;;;;20.19;59.60;101152.40;105495;1292;19105;-66
2023/01/07 03:47:05;;;;;;;;;2.00;2.00;;;;;20.18;59.46;101146.31;105470;1289;26012;-66
2023/01/07 03:49:32;;;;;;;;;2.00;2.00;;;;;20.19;59.51;101151.69;105482;1300;20073;-66
2023/01/07 03:51:59;;;;;;;;;1.00;1.00;;;;;20.19;59.40;101144.61;105414;1300;19290;-66
2023/01/07 03:54:27;;;;;;;;;2.00;2.00;;;;;20.18;59.46;101143.93;105412;1278;19536;-66
2023/01/07 03:56:54;;;;;;;;;2.00;2.00;;;;;20.18;59.54;101146.48;105472;1289;21845;-66
2023/01/07 03:59:21;;;;;;;;;2.00;2.00;;;;;20.18;59.52;101145.56;105439;1282;19621;-66
2023/01/07 04:01:49;;;;;;;;;2.00;1.00;;;;;20.20;59.34;101147.80;105486;1297;19332;-67
2023/01/07 04:04:16;;;;;;;;;2.00;2.00;;;;;20.18;59.36;101148.15;105454;1303;21419;-66
2023/01/07 04:06:43;;;;;;;;;1.50;1.50;;;;;20.18;59.47;101152.16;105557;1297;19381;-66
2023/01/07 04:09:11;;;;;;;;;2.00;2.00;;;;;20.18;59.47;101155.98;105452;1291;19365;-66
2023/01/07 04:11:38;;;;;;;;;2.00;2.00;;;;;20.18;59.44;101160.09;105618;1282;20144;-66
2023/01/07 04:14:05;;;;;;;;;2.00;2.00;;;;;20.17;59.19;101158.23;105469;1291;22092;-66
2023/01/07 04:16:33;;;;;;;;;4.00;2.00;;;;;20.18;59.34;101160.30;105474;1298;19255;-66
2023/01/07 04:19:00;;;;;;;;;2.00;2.00;;;;;20.18;59.32;101158.70;105468;1301;23477;-66
2023/01/07 04:21:27;;;;;;;;;2.00;2.00;;;;;20.19;59.36;101159.52;105417;1300;19906;-66
2023/01/07 04:23:55;;;;;;;;;1.00;1.00;;;;;20.18;59.31;101155.63;105479;1275;19262;-65
2023/01/07 04:26:22;;;;;;;;;2.00;2.00;;;;;20.18;59.26;101155.06;105602;1297;20026;-66
2023/01/07 04:28:50;;;;;;;;;2.00;2.00;;;;;20.19;59.32;101157.84;105578;1289;24407;-65
2023/01/07 04:31:17;;;;;;;;;2.00;2.00;;;;;20.18;59.30;101156.35;105448;1291;20810;-65
2023/01/07 04:33:44;;;;;;;;;2.00;2.00;;;;;20.17;59.36;101154.64;105469;1290;20127;-66
2023/01/07 04:36:13;;;;;;;;;;;;;;;20.17;59.28;101154.41;105441;1291;23661;-65
2023/01/07 04:38:40;;;;;;;;;1.00;1.00;;;;;20.17;59.28;101155.86;105605;1297;18945;-66
2023/01/07 04:41:07;;;;;;;;;1.50;1.50;;;;;20.17;59.33;101152.40;105587;1283;20038;-64
2023/01/07 04:43:35;;;;;;;;;1.00;1.00;;;;;20.18;59.04;101153.83;105551;1297;19150;-65
2023/01/07 04:46:02;;;;;;;;;4.00;2.00;;;;;20.17;59.34;101145.92;105487;1298;21841;-66
2023/01/07 04:48:30;;;;;;;;;2.00;1.00;;;;;20.18;59.14;101146.55;105438;1297;21424;-66
2023/01/07 04:50:57;;;;;;;;;2.00;2.00;;;;;20.17;59.34;101147.70;105512;1289;19231;-67
2023/01/07 04:53:24;;;;;;;;;1.00;1.00;;;;;20.17;59.15;101156.76;105456;1274;19704;-66
2023/01/07 04:55:52;;;;;;;;;1.00;1.00;;;;;20.17;59.25;101156.02;105495;1282;21738;-66
2023/01/07 04:58:19;;;;;;;;;1.00;1.00;;;;;20.18;59.08;101152.54;105463;1303;20997;-66
2023/01/07 05:00:47;;;;;;;;;2.00;2.00;;;;;20.17;59.22;101152.86;105532;1282;19227;-68
2023/01/07 05:03:14;;;;;;;;;1.50;1.50;;;;;20.16;59.25;101156.70;105492;1282;21569;-67
2023/01/07 05:05:41;;;;;;;;;1.00;1.00;;;;;20.16;59.18;101152.33;105474;1283;19844;-65
2023/01/07 05:08:09;;;;;;;;;;;;;;;20.17;59.29;101155.70;105459;1282;20753;-66
2023/01/07 05:10:36;;;;;;;;;2.00;2.00;;;;;20.17;59.09;101147.05;105486;1282;20060;-66
2023/01/07 05:13:04;;;;;;;;;1.00;1.00;;;;;20.16;59.35;101149.63;105450;1298;23483;-66
2023/01/07 05:15:32;;;;;;;;;2.00;2.00;;;;;20.17;59.22;101151.04;105564;1297;21803;-66
2023/01/07 05:17:59;;;;;;;;;2.00;2.00;;;;;20.17;59.13;101151.17;105470;1297;21541;-66
2023/01/07 05:20:26;;;;;;;;;1.00;1.00;;;;;20.16;59.38;101154.90;105540;1298;23771;-66
2023/01/07 05:22:53;;;;;;;;;2.00;2.00;;;;;20.17;59.22;101151.20;105502;1291;20923;-65
2023/01/07 05:25:21;;;;;;;;;1.00;1.00;;;;;20.16;59.21;101152.53;105505;1297;21607;-66
2023/01/07 05:27:48;;;;;;;;;2.00;2.00;;;;;20.16;59.22;101157.25;105575;1297;23054;-66
2023/01/07 05:30:15;;;;;;;;;1.00;1.00;;;;;20.16;59.02;101162.35;105235;1300;288214;-65
2023/01/07 05:32:43;;;;;;;;;1.50;1.50;;;;;20.16;59.04;101163.98;105519;1289;20123;-65
2023/01/07 05:35:10;;;;;;;;;1.00;1.00;;;;;20.16;59.22;101160.16;105522;1297;19199;-65
2023/01/07 05:37:38;;;;;;;;;1.00;1.00;;;;;20.16;59.14;101163.61;105495;1282;22890;-65
2023/01/07 05:40:05;;;;;;;;;2.00;1.00;;;;;20.16;58.91;101168.14;105440;1301;22622;-65
2023/01/07 05:42:33;;;;;;;;;2.00;2.00;;;;;20.16;59.01;101171.20;105412;1282;19602;-65
2023/01/07 05:45:00;;;;;;;;;2.00;2.00;;;;;20.16;59.10;101170.37;105473;1298;19201;-65
2023/01/07 05:47:27;;;;;;;;;1.00;1.00;;;;;20.15;59.13;101176.19;105519;1281;24530;-65
2023/01/07 05:49:55;;;;;;;;;2.00;2.00;;;;;20.15;59.15;101177.68;105541;1282;19607;-65
2023/01/07 05:52:22;;;;;;;;;1.00;1.00;;;;;20.16;59.08;101184.47;105497;1289;19386;-66
2023/01/07 05:54:49;;;;;;;;;1.00;1.00;;;;;20.16;58.93;101182.35;105446;1282;20068;-66
2023/01/07 05:57:16;;;;;;;;;4.00;2.00;;;;;20.16;59.08;101186.67;105452;1294;19614;-66
2023/01/07 05:59:44;;;;;;;;;2.00;2.00;;;;;20.16;59.00;101181.06;105505;1297;23762;-66
2023/01/07 06:02:11;;;;;;;;;2.00;2.00;;;;;20.16;58.95;101180.86;105488;1300;19950;-66
2023/01/07 06:04:38;;;;;;;;;2.00;2.00;;;;;20.16;58.78;101179.94;105460;1298;19230;-64
2023/01/07 06:07:06;;;;;;;;;2.00;2.00;;;;;20.15;58.93;101186.05;105451;1282;23029;-64
2023/01/07 06:09:33;;;;;;;;;2.00;2.00;;;;;20.16;59.06;101184.70;105531;1295;20573;-66
2023/01/07 06:12:00;;;;;;;;;1.00;1.00;;;;;20.16;58.85;101194.83;105571;1297;19534;-65
2023/01/07 06:14:28;;;;;;;;;2.00;2.00;;;;;20.15;59.04;101191.46;105482;1300;19238;-65
2023/01/07 06:16:55;;;;;;;;;1.50;1.50;;;;;20.15;59.07;101192.04;105479;1282;20040;-66
2023/01/07 06:19:22;;;;;;;;;2.00;1.50;;;;;20.15;59.00;101191.48;105537;1297;19297;-67
2023/01/07 06:21:50;;;;;;;;;1.50;1.50;;;;;20.15;58.94;101192.45;105451;1279;19288;-65
2023/01/07 06:24:17;;;;;;;;;1.50;1.50;;;;;20.13;58.92;101198.77;105455;1291;22942;-67
2023/01/07 06:26:44;;;;;;;;;2.00;2.00;;;;;20.14;58.83;101193.77;105387;1300;19846;-66
2023/01/07 06:29:12;;;;;;;;;2.00;2.00;;;;;20.14;58.97;101199.02;105464;1282;20639;-66
2023/01/07 06:31:39;;;;;;;;;2.00;2.00;;;;;20.14;58.87;101198.27;105447;1282;20043;-65
2023/01/07 06:34:06;;;;;;;;;2.00;2.00;;;;;20.14;59.09;101204.15;105444;1282;19312;-66
2023/01/07 06:36:34;;;;;;;;;;;;;;;20.14;58.88;101210.85;105454;1300;22105;-65
2023/01/07 06:39:01;;;;;;;;;1.00;1.00;;;;;20.14;58.88;101217.38;105443;1300;20023;-66
2023/01/07 06:41:28;;;;;;;;;4.00;4.00;;;;;20.15;59.00;101224.67;105494;1297;19294;-66
2023/01/07 06:43:56;;;;;;;;;2.00;2.00;;;;;20.15;58.82;101221.09;105457;1291;21521;-65
2023/01/07 06:46:23;;;;;;;;;;;;;;;20.14;58.79;101221.52;105466;1297;20031;-65
2023/01/07 06:48:50;;;;;;;;;2.00;2.00;;;;;20.14;59.00;101222.83;105450;1281;19177;-65
2023/01/07 06:51:18;;;;;;;;;;;;;;;20.14;58.97;101224.42;105419;1298;23362;-65
2023/01/07 06:53:45;;;;;;;;;3.00;2.00;;;;;20.15;58.92;101227.25;105597;1282;21210;-65
2023/01/07 06:56:13;;;;;;;;;2.00;2.00;;;;;20.14;58.76;101223.00;105553;1287;19361;-64
2023/01/07 06:58:40;;;;;;;;;1.00;1.00;;;;;20.14;58.90;101227.11;105505;1288;19585;-65
2023/01/07 07:01:07;;;;;;;;;2.00;2.00;;;;;20.16;58.93;101231.28;105445;1296;21549;-65
2023/01/07 07:03:35;;;;;;;;;1.00;1.00;;;;;20.18;58.78;101224.35;105438;1298;19767;-67
2023/01/07 07:06:02;;;;;;;;;1.00;1.00;;;;;20.20;58.99;101229.09;105434;1298;19232;-64
2023/01/07 07:08:29;;;;;;;;;2.00;2.00;;;;;20.21;59.20;101231.14;105433;1281;20414;-65
2023/01/07 07:10:57;;;;;;;;;1.00;1.00;;;;;20.20;59.28;101233.16;105532;1282;19642;-65
2023/01/07 07:13:24;;;;;;;;;1.00;1.00;;;;;20.21;59.37;101232.34;105536;1298;21054;-66
2023/01/07 07:15:51;;;;;;;;;2.00;2.00;;;;;20.21;59.33;101230.08;105433;1294;21504;-66
2023/01/07 07:18:19;;;;;;;;;2.00;2.00;;;;;20.19;59.62;101232.96;105434;1275;19983;-65
2023/01/07 07:20:46;;;;;;;;;2.00;2.00;;;;;20.19;59.53;101230.58;105466;1282;20627;-65
2023/01/07 07:23:13;;;;;;;;;1.00;1.00;;;;;20.21;59.69;101235.66;105497;1297;24510;-65
2023/01/07 07:25:40;;;;;;;;;1.00;1.00;;;;;20.21;59.62;101235.29;105560;1282;19632;-64
2023/01/07 07:28:08;;;;;;;;;1.50;1.00;;;;;20.21;59.86;101246.14;105471;1289;19216;-65
2023/01/07 07:30:36;;;;;;;;;1.00;1.00;;;;;20.22;59.94;101241.21;105436;1298;22778;-64
2023/01/07 07:33:03;;;;;;;;;1.00;1.00;;;;;20.23;59.75;101251.78;105438;1300;19159;-65
2023/01/07 07:35:31;;;;;;;;;1.00;1.00;;;;;20.23;59.96;101248.75;105552;1297;19199;-65
2023/01/07 07:37:58;;;;;;;;;2.00;2.00;;;;;20.22;59.90;101242.83;105507;1275;20032;-65
2023/01/07 07:40:26;;;;;;;;;1.00;1.00;;;;;20.22;59.88;101253.58;105500;1282;23698;-65
2023/01/07 07:42:53;;;;;;;;;2.00;2.00;;;;;20.20;59.91;101251.34;105452;1295;23522;-66
2023/01/07 07:45:21;;;;;;;;;2.00;2.00;;;;;20.20;59.95;101251.95;105610;1297;20031;-65
2023/01/07 07:47:48;;;;;;;;;2.00;2.00;;;;;20.20;60.01;101257.66;105504;1297;19319;-66
2023/01/07 07:50:15;;;;;;;;;1.00;1.00;;;;;20.21;59.84;101257.76;105454;1297;19368;-66
2023/01/07 07:52:43;;;;;;;;;1.00;1.00;;;;;20.21;60.06;101257.77;105385;1290;21394;-66
2023/01/07 07:55:10;;;;;;;;;2.00;2.00;;;;;20.24;60.10;101257.53;105471;1282;23534;-65
2023/01/07 07:57:37;;;;;;;;;2.00;2.00;;;;;20.24;59.97;101252.42;105613;1298;19235;-65
2023/01/07 08:00:05;;;;;;;;;2.00;2.00;;;;;20.23;59.88;101256.98;105486;1297;21652;-65
2023/01/07 08:02:32;;;;;;;;;1.00;1.00;;;;;20.25;60.07;101257.13;105464;1289;23490;-66
2023/01/07 08:04:59;;;;;;;;;1.00;1.00;;;;;20.30;60.54;101258.11;105473;1275;19597;-66
2023/01/07 08:07:27;;;;;;;;;2.00;2.00;;;;;20.32;60.59;101260.08;105499;1275;21492;-66
2023/01/07 08:09:54;;;;;;;;;2.00;2.00;;;;;20.32;60.94;101260.63;105462;1278;19657;-67
2023/01/07 08:12:21;;;;;;;;;2.00;2.00;;;;;20.33;61.19;101259.67;105438;1274;20741;-66
2023/01/07 08:14:49;;;;;;;;;4.00;4.00;;;;;20.31;61.25;101260.25;105482;1297;22556;-67
2023/01/07 08:17:16;;;;;;;;;;;;;;;20.31;61.39;101256.38;105433;1283;19272;-67
2023/01/07 08:19:43;;;;;;;;;2.00;1.50;;;;;20.31;61.32;101257.29;105431;1275;21617;-64
2023/01/07 08:22:11;;;;;;;;;2.00;2.00;;;;;20.31;61.42;101254.40;105484;1297;21549;-65
2023/01/07 08:24:38;;;;;;;;;4.00;3.00;;;;;20.32;61.44;101253.55;105421;1275;19271;-65
2023/01/07 08:27:05;;;;;;;;;4.00;4.00;;;;;20.32;61.46;101252.11;105388;1274;21133;-65
2023/01/07 08:29:33;;;;;;;;;4.00;4.00;;;;;20.32;61.19;101255.39;105534;1297;24633;-65
2023/01/07 08:32:00;;;;;;;;;4.00;4.00;;;;;20.32;61.27;101257.52;105462;1291;19659;-65
2023/01/07 08:34:27;;;;;;;;;4.00;2.00;;;;;20.33;61.07;101256.88;105551;1290;19347;-65
2023/01/07 08:36:55;;;;;;;;;4.00;2.00;;;;;20.36;61.15;101253.10;105465;1291;23672;-65
2023/01/07 08:39:22;;;;;;;;;4.00;4.00;;;;;20.38;61.33;101248.79;105467;1282;18987;-67
2023/01/07 08:41:49;;;;;;;;;4.00;4.00;;;;;20.39;61.05;101243.95;105508;1295;20792;-67
2023/01/07 08:44:17;;;;;;;;;5.00;5.00;;;;;20.40;61.01;101234.78;105465;1282;20040;-63
2023/01/07 08:46:44;;;;;;;;;4.00;4.00;;;;;20.43;60.91;101232.59;105512;1291;19629;-66
2023/01/07 08:49:12;;;;;;;;;5.67;5.67;;;;;20.43;60.85;101234.17;105375;1291;19331;-65
2023/01/07 08:51:39;;;;;;;;;6.00;5.00;;;;;20.42;60.64;101236.35;105491;1291;24066;-64
2023/01/07 08:54:06;;;;;;;;;5.00;5.00;;;;;20.42;60.40;101236.29;105572;1298;19504;-65
2023/01/07 08:56:33;;;;;;;;;5.00;5.00;;;;;20.43;60.47;101237.69;105399;1297;19143;-66
2023/01/07 08:59:01;;;;;;;;;5.00;4.00;;;;;20.43;60.30;101241.30;105511;1282;22791;-67
2023/01/07 09:01:28;;;;;;;;;5.00;5.00;;;;;20.43;60.03;101236.80;105472;1300;19276;-66
2023/01/07 09:03:55;;;;;;;;;7.00;5.00;;;;;20.44;60.11;101242.29;105445;1282;20943;-64
2023/01/07 09:06:23;;;;;;;;;9.00;9.00;;;;;20.43;60.07;101247.28;105422;1300;20015;-65
2023/01/07 09:08:50;;;;;;;;;12.00;9.50;;;;;20.43;60.07;101244.19;105626;1298;20613;-62
2023/01/07 09:11:17;;;;;;;;;11.00;9.00;;;;;20.43;59.66;101246.34;105467;1297;22795;-65
2023/01/07 09:13:45;;;;;;;;;11.00;8.00;;;;;20.44;59.50;101252.23;105353;1282;20059;-66
2023/01/07 09:16:12;;;;;;;;;8.50;8.50;;;;;20.46;59.42;101259.20;105454;1282;19097;-65
2023/01/07 09:18:40;;;;;;;;;8.00;8.00;;;;;20.43;59.50;101261.79;105507;1275;24101;-65
2023/01/07 09:21:07;;;;;;;;;9.00;8.00;;;;;20.42;59.43;101257.73;105516;1297;21463;-65
2023/01/07 09:23:34;;;;;;;;;9.00;9.00;;;;;20.41;59.33;101250.61;105433;1282;20859;-64
2023/01/07 09:26:02;;;;;;;;;8.00;8.00;;;;;20.36;58.96;101241.50;105459;1297;23623;-64
2023/01/07 09:28:29;;;;;;;;;8.00;8.00;;;;;20.37;59.03;101234.66;105498;1274;20063;-64
2023/01/07 09:30:57;;;;;;;;;8.00;8.00;;;;;20.40;59.15;101228.73;105507;1291;19161;-64
2023/01/07 09:33:24;;;;;;;;;8.00;8.00;;;;;20.40;59.47;101227.27;105421;1281;20708;-65
2023/01/07 09:35:51;;;;;;;;;7.00;7.00;;;;;20.40;59.56;101236.52;105488;1282;20049;-65
2023/01/07 09:38:19;;;;;;;;;;;;;;;20.38;59.41;101244.33;105468;1297;23522;-64
2023/01/07 09:40:46;;;;;;;;;7.50;7.00;;;;;20.40;59.49;101244.93;105489;1291;20379;-64
2023/01/07 09:43:14;;;;;;;;;7.00;5.00;;;;;20.39;59.45;101244.27;105473;1300;22544;-66
2023/01/07 09:45:41;;;;;;;;;5.00;5.00;;;;;20.37;59.41;101249.40;105522;1275;19516;-64
2023/01/07 09:48:08;;;;;;;;;7.00;7.00;;;;;20.38;59.39;101256.92;105586;1290;19245;-65
2023/01/07 09:50:36;;;;;;;;;6.00;5.00;;;;;20.35;59.38;101263.61;105447;1297;21610;-66
2023/01/07 09:53:03;;;;;;;;;7.00;6.00;;;;;20.33;59.30;101270.16;105466;1281;19300;-66
2023/01/07 09:55:30;;;;;;;;;5.00;5.00;;;;;20.33;59.21;101261.77;105447;1282;19264;-66
2023/01/07 09:57:58;;;;;;;;;7.00;5.00;;;;;20.33;59.27;101257.77;105285;1282;21461;-65
2023/01/07 10:00:25;;;;;;;;;5.00;5.00;;;;;20.34;58.92;101259.02;105547;1290;23868;-64
2023/01/07 10:02:52;;;;;;;;;7.00;7.00;;;;;20.34;59.18;101253.17;105441;1290;20779;-65
2023/01/07 10:05:20;;;;;;;;;5.00;5.00;;;;;20.34;58.91;101250.77;105468;1290;21872;-65
2023/01/07 10:07:47;;;;;;;;;7.00;5.00;;;;;20.35;59.15;101250.95;105451;1291;19610;-64
2023/01/07 10:10:14;;;;;;;;;4.00;4.00;;;;;20.34;59.06;101250.23;105422;1297;22612;-65
2023/01/07 10:12:42;;;;;;;;;7.00;7.00;;;;;20.34;59.05;101253.13;105428;1301;20042;-65
2023/01/07 10:15:09;;;;;;;;;5.00;5.00;;;;;20.34;59.25;101256.06;105593;1297;19342;-65
2023/01/07 10:17:36;;;;;;;;;5.00;4.50;;;;;20.35;59.27;101257.67;105473;1290;19417;-64
2023/01/07 10:20:04;;;;;;;;;5.00;5.00;;;;;20.36;59.25;101260.02;105509;1282;22346;-65
2023/01/07 10:22:31;;;;;;;;;4.00;4.00;;;;;20.35;59.26;101256.70;105483;1297;19141;-65
2023/01/07 10:24:58;;;;;;;;;8.00;7.00;;;;;20.35;59.44;101255.82;105389;1275;23093;-65
2023/01/07 10:27:26;;;;;;;;;4.00;4.00;;;;;20.34;59.45;101255.14;105421;1275;20003;-65
2023/01/07 10:29:53;;;;;;;;;7.00;4.00;;;;;20.35;59.37;101251.40;105447;1282;23037;-65
2023/01/07 10:32:21;;;;;;;;;5.00;4.00;;;;;20.36;59.53;101242.66;105405;1282;23324;-65
2023/01/07 10:34:48;;;;;;;;;5.00;5.00;;;;;20.37;59.69;101240.48;105392;1282;21551;-66
2023/01/07 10:37:15;;;;;;;;;2.00;2.00;;;;;20.40;60.03;101242.23;105405;1290;19158;-65
2023/01/07 10:39:43;;;;;;;;;4.50;4.00;;;;;20.41;59.85;101238.60;105377;1297;20822;-64
2023/01/07 10:42:10;;;;;;;;;4.00;4.00;;;;;20.43;59.97;101235.64;105416;1274;23653;-65
2023/01/07 10:44:37;;;;;;;;;4.00;4.00;;;;;20.43;60.13;101235.67;105441;1274;19432;-65
2023/01/07 10:47:05;;;;;;;;;4.00;2.00;;;;;20.43;60.02;101236.73;105339;1283;22014;-64
2023/01/07 10:49:32;;;;;;;;;4.00;4.00;;;;;20.43;60.04;101231.84;105454;1298;20006;-65
2023/01/07 10:52:00;;;;;;;;;2.00;2.00;;;;;20.43;60.07;101227.67;105461;1297;25059;-63
2023/01/07 10:54:27;;;;;;;;;4.00;4.00;;;;;20.41;60.15;101223.39;105365;1282;20764;-64
2023/01/07 10:56:56;;;;;;;;;4.00;4.00;;;;;20.40;60.14;101215.89;105431;1282;22605;-67
2023/01/07 10:59:24;;;;;;;;;4.00;4.00;;;;;20.38;60.14;101217.27;105400;1282;19591;-68
2023/01/07 11:01:52;;;;;;;;;4.00;2.00;;;;;20.38;60.15;101213.66;105406;1300;19705;-65
2023/01/07 11:04:19;;;;;;;;;2.00;2.00;;;;;20.39;60.07;101217.61;105393;1292;20244;-66
2023/01/07 11:06:46;;;;;;;;;2.00;2.00;;;;;20.39;60.22;101214.52;105445;1297;19879;-65
2023/01/07 11:09:14;;;;;;;;;4.00;4.00;;;;;20.40;60.15;101209.46;105401;1282;19510;-67
2023/01/07 11:11:41;;;;;;;;;3.00;3.00;;;;;20.41;60.04;101206.34;105366;1275;20140;-66
2023/01/07 11:14:08;;;;;;;;;4.00;4.00;;;;;20.42;59.79;101201.89;105545;1282;21892;-63
2023/01/07 11:16:36;;;;;;;;;4.00;4.00;;;;;20.42;59.90;101202.56;105411;1275;19238;-65
2023/01/07 11:19:03;;;;;;;;;8.00;5.00;;;;;20.41;59.88;101200.48;105227;1282;20110;-65
2023/01/07 11:21:30;;;;;;;;;4.00;4.00;;;;;20.41;59.70;101194.33;105275;1294;19661;-65
2023/01/07 11:23:58;;;;;;;;;2.00;2.00;;;;;20.40;59.90;101195.71;105499;1282;19104;-66
2023/01/07 11:26:25;;;;;;;;;2.00;2.00;;;;;20.39;59.99;101186.79;105531;1291;21738;-65